Time;durP1;ratioP1;P1;durP2;ratioP2;P2;SDS_P1;SDS_P2;PMS_P1;PMS_P2;Temp;Humidity;BMP_temperature;BMP_pressure;BME280_temperature;BME280_humidity;BME280_pressure;Samples;Min_cycle;Max_cycle;Signal;HPM_P1;HPM_P2
2021/09/09 00:02:05;;;;;;;1.05;1.02;;;12.30;99.90;;;;;;5091924;28;20171;-72
2021/09/09 00:04:32;;;;;;;0.30;0.30;;;12.30;99.90;;;;;;5091770;28;20289;-73
2021/09/09 00:06:58;;;;;;;0.20;0.20;;;12.30;99.90;;;;;;5110047;28;20186;-73
2021/09/09 00:09:24;;;;;;;0.60;0.60;;;12.20;99.90;;;;;;5109875;28;20262;-73
2021/09/09 00:11:50;;;;;;;0.88;0.75;;;12.20;99.90;;;;;;5091699;28;20643;-72
2021/09/09 00:14:16;;;;;;;0.13;0.13;;;12.40;99.90;;;;;;5091556;28;20199;-72
2021/09/09 00:16:42;;;;;;;2.00;0.77;;;12.30;99.90;;;;;;5109837;28;20229;-72
2021/09/09 00:19:08;;;;;;;1.00;1.00;;;12.20;99.90;;;;;;5109761;28;20223;-72
2021/09/09 00:21:34;;;;;;;0.13;0.13;;;12.20;99.90;;;;;;5109664;28;20166;-72
2021/09/09 00:24:00;;;;;;;4.40;0.65;;;12.20;99.90;;;;;;5109521;28;20255;-72
2021/09/09 00:26:26;;;;;;;0.60;0.60;;;12.10;99.90;;;;;;5109639;28;20227;-72
2021/09/09 00:28:52;;;;;;;0.52;0.52;;;12.10;99.90;;;;;;5109430;28;20187;-72
2021/09/09 00:31:18;;;;;;;0.10;0.10;;;12.20;99.90;;;;;;5109555;28;20160;-72
2021/09/09 00:33:44;;;;;;;0.20;0.20;;;12.10;99.90;;;;;;5109396;28;20187;-72
2021/09/09 00:36:11;;;;;;;2.30;1.30;;;12.10;99.90;;;;;;5109502;28;20231;-73
2021/09/09 00:38:37;;;;;;;0.57;0.57;;;12.00;99.90;;;;;;5108799;28;20171;-72
2021/09/09 00:41:04;;;;;;;0.20;0.20;;;12.00;99.90;;;;;;5091158;28;20631;-72
2021/09/09 00:43:30;;;;;;;2.03;1.88;;;11.90;99.90;;;;;;5109257;28;20191;-72
2021/09/09 00:45:56;;;;;;;0.35;0.35;;;11.80;99.90;;;;;;5090953;28;20187;-72
2021/09/09 00:48:24;;;;;;;0.57;0.57;;;11.90;99.90;;;;;;5090922;28;20588;-72
2021/09/09 00:50:51;;;;;;;0.95;0.68;;;12.20;99.90;;;;;;5090966;28;20178;-72
2021/09/09 00:53:17;;;;;;;0.57;0.32;;;12.40;99.90;;;;;;5108785;28;20234;-72
2021/09/09 00:55:44;;;;;;;0.52;0.52;;;12.50;99.90;;;;;;5109166;28;20176;-72
2021/09/09 00:58:10;;;;;;;1.17;0.20;;;12.60;99.90;;;;;;5109073;28;20155;-72
2021/09/09 01:00:39;;;;;;;0.25;0.25;;;12.40;99.90;;;;;;5108903;28;20156;-72
2021/09/09 01:03:09;;;;;;;0.63;0.63;;;12.20;99.90;;;;;;5108764;28;20238;-73
2021/09/09 01:05:36;;;;;;;1.13;0.93;;;11.80;99.90;;;;;;5108980;28;20148;-72
2021/09/09 01:08:04;;;;;;;1.27;1.13;;;11.90;99.90;;;;;;5090478;28;20177;-73
2021/09/09 01:10:29;;;;;;;0.73;0.73;;;11.90;99.90;;;;;;5108887;28;20210;-72
2021/09/09 01:12:56;;;;;;;0.90;0.85;;;11.60;99.90;;;;;;5108759;28;20219;-72
2021/09/09 01:15:22;;;;;;;0.38;0.30;;;11.70;99.90;;;;;;5108824;28;20175;-72
2021/09/09 01:17:48;;;;;;;1.83;1.73;;;11.50;99.90;;;;;;5108827;28;20562;-72
2021/09/09 01:20:15;;;;;;;0.30;0.30;;;11.60;99.90;;;;;;5108727;28;20163;-72
2021/09/09 01:22:43;;;;;;;0.75;0.75;;;11.50;99.90;;;;;;5108722;28;20159;-72
2021/09/09 01:25:10;;;;;;;0.85;0.85;;;11.50;99.90;;;;;;5108580;28;20195;-72
2021/09/09 01:27:37;;;;;;;0.15;0.15;;;11.40;99.90;;;;;;5108651;28;20163;-73
2021/09/09 01:30:04;;;;;;;0.28;0.28;;;11.40;99.90;;;;;;5108555;28;20246;-73
2021/09/09 01:32:30;;;;;;;0.20;0.20;;;11.30;99.90;;;;;;5108798;28;20160;-72
2021/09/09 01:34:56;;;;;;;1.70;1.60;;;11.40;99.90;;;;;;5090222;28;20206;-72
2021/09/09 01:37:23;;;;;;;0.30;0.30;;;11.40;99.90;;;;;;5090052;28;20175;-72
2021/09/09 01:39:49;;;;;;;0.28;0.28;;;11.40;99.90;;;;;;5108568;28;20170;-72
2021/09/09 01:42:15;;;;;;;0.25;0.20;;;11.50;99.90;;;;;;5090232;28;20175;-72
2021/09/09 01:44:41;;;;;;;1.20;1.05;;;11.50;99.90;;;;;;5108321;28;20191;-72
2021/09/09 01:47:07;;;;;;;0.20;0.20;;;11.50;99.90;;;;;;5108514;28;20244;-72
2021/09/09 01:49:33;;;;;;;0.15;0.15;;;11.50;99.90;;;;;;5109350;28;20214;-72
2021/09/09 01:51:59;;;;;;;0.47;0.47;;;11.60;99.90;;;;;;5112673;28;20162;-72
2021/09/09 01:54:25;;;;;;;0.30;0.30;;;11.70;99.90;;;;;;5112298;28;20222;-73
2021/09/09 01:56:52;;;;;;;0.20;0.20;;;11.60;99.90;;;;;;5094291;28;20198;-73
2021/09/09 01:59:18;;;;;;;0.55;0.55;;;11.70;99.90;;;;;;5094163;28;20246;-72
2021/09/09 02:01:44;;;;;;;2.80;0.40;;;11.60;99.90;;;;;;5112343;28;20163;-72
2021/09/09 02:04:10;;;;;;;0.15;0.15;;;11.70;99.90;;;;;;5112246;28;20293;-72
2021/09/09 02:06:36;;;;;;;0.60;0.60;;;11.60;99.90;;;;;;5112566;28;20234;-73
2021/09/09 02:09:03;;;;;;;0.65;0.47;;;11.60;99.90;;;;;;5112302;28;20232;-72
2021/09/09 02:11:29;;;;;;;0.45;0.45;;;11.40;99.90;;;;;;5110768;28;20616;-72
2021/09/09 02:13:55;;;;;;;0.28;0.28;;;11.30;99.90;;;;;;5112123;28;20265;-72
2021/09/09 02:16:21;;;;;;;0.65;0.65;;;11.30;99.90;;;;;;5111898;28;20160;-73
2021/09/09 02:18:47;;;;;;;0.45;0.45;;;11.20;99.90;;;;;;5111980;28;20159;-73
2021/09/09 02:21:14;;;;;;;0.60;0.60;;;11.30;99.90;;;;;;5111645;28;20246;-73
2021/09/09 02:23:40;;;;;;;0.50;0.50;;;11.60;99.90;;;;;;5111975;28;20214;-73
2021/09/09 02:26:07;;;;;;;0.38;0.38;;;11.50;99.90;;;;;;5112017;28;20238;-72
2021/09/09 02:28:33;;;;;;;1.50;1.00;;;11.60;99.90;;;;;;5093479;28;20203;-72
2021/09/09 02:30:59;;;;;;;0.28;0.20;;;11.90;99.90;;;;;;5093508;28;20263;-73
2021/09/09 02:33:25;;;;;;;0.52;0.52;;;12.00;99.90;;;;;;5112014;28;20251;-74
2021/09/09 02:35:51;;;;;;;0.30;0.30;;;11.80;99.90;;;;;;5111808;28;20181;-73
2021/09/09 02:38:17;;;;;;;4.68;1.13;;;11.80;99.90;;;;;;5111714;28;20186;-73
2021/09/09 02:40:43;;;;;;;1.10;1.00;;;12.00;99.90;;;;;;5093360;28;20167;-73
2021/09/09 02:43:09;;;;;;;1.40;1.30;;;12.10;99.90;;;;;;5093388;28;20195;-73
2021/09/09 02:45:35;;;;;;;16.90;1.00;;;12.00;99.90;;;;;;5093474;28;20164;-73
2021/09/09 02:48:02;;;;;;;0.32;0.32;;;11.80;99.90;;;;;;5093423;28;20681;-72
2021/09/09 02:50:28;;;;;;;0.10;0.10;;;11.60;99.90;;;;;;5111361;28;20202;-72
2021/09/09 02:52:54;;;;;;;0.35;0.30;;;11.70;99.90;;;;;;5093497;28;20168;-73
2021/09/09 02:55:20;;;;;;;0.30;0.25;;;11.80;99.90;;;;;;5092972;28;20226;-73
2021/09/09 02:57:46;;;;;;;1.27;1.17;;;11.80;99.90;;;;;;5111540;28;20170;-73
2021/09/09 03:00:12;;;;;;;0.88;0.73;;;11.80;99.90;;;;;;5110900;28;20243;-73
2021/09/09 03:02:38;;;;;;;0.22;0.22;;;11.80;99.90;;;;;;5111341;28;20187;-75
2021/09/09 03:05:05;;;;;;;1.25;1.15;;;11.50;99.90;;;;;;5093045;28;20237;-72
2021/09/09 03:07:31;;;;;;;0.17;0.17;;;11.10;99.90;;;;;;5111501;28;20216;-71
2021/09/09 03:09:57;;;;;;;0.70;0.30;;;11.10;99.90;;;;;;5093013;28;20198;-72
2021/09/09 03:12:23;;;;;;;0.35;0.35;;;11.20;99.90;;;;;;5111336;28;20233;-72
2021/09/09 03:14:49;;;;;;;1.23;0.50;;;11.20;99.90;;;;;;5093465;28;20171;-72
2021/09/09 03:17:15;;;;;;;0.95;0.65;;;11.20;99.90;;;;;;5111656;28;20175;-72
2021/09/09 03:19:41;;;;;;;0.28;0.28;;;11.20;99.90;;;;;;5111394;28;20484;-72
2021/09/09 03:22:07;;;;;;;0.43;0.43;;;11.30;99.90;;;;;;5092437;28;20199;-72
2021/09/09 03:24:33;;;;;;;0.32;0.22;;;11.20;99.90;;;;;;5110898;28;20185;-73
2021/09/09 03:26:59;;;;;;;0.10;0.10;;;11.40;99.90;;;;;;5111207;28;20163;-72
2021/09/09 03:29:25;;;;;;;1.88;0.82;;;11.30;99.90;;;;;;5110355;28;20191;-72
2021/09/09 03:31:51;;;;;;;1.45;1.35;;;11.20;99.90;;;;;;5110315;28;20233;-72
2021/09/09 03:34:17;;;;;;;0.03;0.03;;;10.80;99.90;;;;;;5110305;28;20160;-71
2021/09/09 03:36:43;;;;;;;2.05;1.88;;;10.70;99.90;;;;;;5092003;28;20167;-72
2021/09/09 03:39:09;;;;;;;1.60;1.50;;;10.60;99.90;;;;;;5110248;28;20171;-72
2021/09/09 03:41:35;;;;;;;0.52;0.52;;;10.60;99.90;;;;;;5109805;28;20214;-72
2021/09/09 03:44:01;;;;;;;0.28;0.28;;;10.60;99.90;;;;;;5109985;28;20159;-74
2021/09/09 03:46:26;;;;;;;0.22;0.22;;;10.50;99.90;;;;;;5091744;28;20197;-73
2021/09/09 03:48:52;;;;;;;1.25;1.15;;;10.50;99.90;;;;;;5109865;28;20183;-73
2021/09/09 03:51:18;;;;;;;0.22;0.22;;;10.50;99.90;;;;;;5109803;28;20198;-72
2021/09/09 03:53:44;;;;;;;0.38;0.38;;;10.60;99.90;;;;;;5109659;28;20222;-72
2021/09/09 03:56:10;;;;;;;0.00;0.00;;;10.60;99.90;;;;;;5109828;28;20171;-73
2021/09/09 03:58:36;;;;;;;0.55;0.55;;;10.60;99.90;;;;;;5109814;28;20167;-72
2021/09/09 04:01:02;;;;;;;1.75;1.05;;;10.60;99.90;;;;;;5091410;28;20198;-72
2021/09/09 04:03:28;;;;;;;2.90;1.65;;;10.60;99.90;;;;;;5109860;28;20160;-72
2021/09/09 04:05:53;;;;;;;5.15;1.58;;;10.60;99.90;;;;;;5113161;28;20212;-71
2021/09/09 04:08:19;;;;;;;0.70;0.70;;;10.80;99.90;;;;;;5129200;28;20183;-71
2021/09/09 04:10:45;;;;;;;1.65;1.55;;;11.00;99.90;;;;;;5129778;28;20180;-72
2021/09/09 04:13:11;;;;;;;0.95;0.88;;;11.20;99.90;;;;;;5110502;28;20190;-72
2021/09/09 04:15:39;;;;;;;0.90;0.90;;;11.20;99.90;;;;;;5111235;28;20163;-72
2021/09/09 04:18:05;;;;;;;0.60;0.60;;;11.40;99.90;;;;;;5129846;28;20167;-73
2021/09/09 04:20:31;;;;;;;0.20;0.20;;;11.00;99.90;;;;;;5129923;28;20159;-73
2021/09/09 04:22:57;;;;;;;1.25;1.15;;;11.00;99.90;;;;;;5129715;28;20208;-72
2021/09/09 04:25:22;;;;;;;0.45;0.45;;;11.00;99.90;;;;;;5129784;28;20238;-74
2021/09/09 04:27:48;;;;;;;0.80;0.30;;;11.10;99.90;;;;;;5111074;28;20202;-71
2021/09/09 04:30:14;;;;;;;2.83;1.73;;;11.00;99.90;;;;;;5111155;28;20219;-71
2021/09/09 04:32:40;;;;;;;0.32;0.32;;;10.60;99.90;;;;;;5129512;28;20159;-71
2021/09/09 04:35:07;;;;;;;0.55;0.55;;;10.80;99.90;;;;;;5110949;28;20277;-72
2021/09/09 04:37:36;;;;;;;1.40;0.90;;;10.80;99.90;;;;;;5129384;28;20266;-72
2021/09/09 04:40:03;;;;;;;0.20;0.20;;;11.00;99.90;;;;;;5129410;28;20186;-74
2021/09/09 04:42:28;;;;;;;0.10;0.10;;;11.10;99.90;;;;;;5129437;28;20162;-73
2021/09/09 04:44:54;;;;;;;2.13;1.23;;;11.20;99.90;;;;;;5129278;28;20166;-73
2021/09/09 04:47:20;;;;;;;1.67;1.55;;;11.00;99.90;;;;;;5129001;28;20218;-75
2021/09/09 04:49:46;;;;;;;1.17;0.50;;;11.00;99.90;;;;;;5129183;28;20220;-73
2021/09/09 04:52:12;;;;;;;0.20;0.20;;;11.10;99.90;;;;;;5129134;28;20188;-72
2021/09/09 04:54:38;;;;;;;2.25;1.08;;;11.30;99.90;;;;;;5110483;28;20218;-73
2021/09/09 04:57:04;;;;;;;29.95;1.92;;;11.50;99.90;;;;;;5110537;28;20190;-73
2021/09/09 04:59:30;;;;;;;0.63;0.60;;;11.50;99.90;;;;;;5128765;28;20170;-73
2021/09/09 05:01:56;;;;;;;1.27;1.17;;;11.50;99.90;;;;;;5110626;28;20163;-72
2021/09/09 05:04:22;;;;;;;0.15;0.13;;;11.80;99.90;;;;;;5129134;28;20189;-72
2021/09/09 05:06:48;;;;;;;1.10;1.00;;;12.00;99.90;;;;;;5110834;28;20195;-72
2021/09/09 05:09:14;;;;;;;0.60;0.60;;;11.90;99.90;;;;;;5129400;28;20191;-72
2021/09/09 05:11:39;;;;;;;0.38;0.38;;;11.80;99.90;;;;;;5128821;28;20162;-74
2021/09/09 05:14:05;;;;;;;0.80;0.80;;;11.90;99.90;;;;;;5110422;28;20591;-72
2021/09/09 05:16:31;;;;;;;0.50;0.50;;;12.50;99.90;;;;;;5110297;28;20257;-72
2021/09/09 05:18:57;;;;;;;1.27;1.13;;;13.30;99.90;;;;;;5128676;28;20197;-72
2021/09/09 05:21:23;;;;;;;0.40;0.40;;;14.10;99.90;;;;;;5128465;28;20162;-72
2021/09/09 05:23:49;;;;;;;7.05;1.58;;;14.20;99.90;;;;;;5128457;28;20196;-73
2021/09/09 05:26:15;;;;;;;0.82;0.82;;;13.70;99.90;;;;;;5128560;28;20323;-71
2021/09/09 05:28:40;;;;;;;1.45;1.35;;;13.10;99.90;;;;;;5128130;28;20183;-72
2021/09/09 05:31:06;;;;;;;1.65;1.60;;;13.10;99.90;;;;;;5128106;28;20159;-72
2021/09/09 05:33:32;;;;;;;0.28;0.20;;;13.20;99.90;;;;;;5128430;28;20159;-72
2021/09/09 05:35:58;;;;;;;1.38;1.20;;;13.50;99.90;;;;;;5128304;28;20194;-72
2021/09/09 05:38:24;;;;;;;0.77;0.77;;;13.60;99.90;;;;;;5109903;28;20178;-72
2021/09/09 05:40:50;;;;;;;0.82;0.82;;;13.80;99.90;;;;;;5109965;28;20523;-72
2021/09/09 05:43:17;;;;;;;9.32;1.70;;;14.20;99.90;;;;;;5128494;28;20173;-72
2021/09/09 05:45:43;;;;;;;0.98;0.90;;;14.10;99.90;;;;;;5128158;28;20627;-73
2021/09/09 05:48:09;;;;;;;0.60;0.60;;;14.00;99.90;;;;;;5128473;28;20159;-73
2021/09/09 05:50:35;;;;;;;1.38;0.80;;;14.30;99.90;;;;;;5128233;28;20654;-73
2021/09/09 05:53:01;;;;;;;1.05;1.05;;;14.90;99.90;;;;;;5109600;28;20159;-73
2021/09/09 05:55:27;;;;;;;1.00;0.98;;;15.40;99.90;;;;;;5128103;28;20185;-71
2021/09/09 05:57:53;;;;;;;0.70;0.70;;;15.60;99.90;;;;;;5128003;28;20190;-71
2021/09/09 06:00:19;;;;;;;5.60;0.90;;;15.40;99.90;;;;;;5128100;28;20532;-71
2021/09/09 06:02:48;;;;;;;1.13;1.08;;;14.80;99.90;;;;;;5128290;28;20178;-72
2021/09/09 06:05:15;;;;;;;1.63;1.08;;;14.60;99.90;;;;;;5109900;28;20639;-72
2021/09/09 06:07:41;;;;;;;3.80;1.23;;;14.40;99.90;;;;;;5128093;28;20186;-72
2021/09/09 06:10:11;;;;;;;3.78;2.17;;;14.10;99.90;;;;;;5109830;28;20281;-72
2021/09/09 06:12:37;;;;;;;0.38;0.38;;;14.60;99.90;;;;;;5128463;28;20226;-72
2021/09/09 06:15:04;;;;;;;2.47;1.38;;;15.50;99.90;;;;;;5128058;28;20250;-71
2021/09/09 06:17:31;;;;;;;1.00;1.00;;;15.10;99.90;;;;;;5128319;28;20201;-72
2021/09/09 06:19:57;;;;;;;2.50;2.03;;;14.70;99.90;;;;;;5128549;28;20151;-72
2021/09/09 06:22:23;;;;;;;2.55;0.85;;;14.50;99.90;;;;;;5128691;28;20208;-73
2021/09/09 06:24:49;;;;;;;3.95;0.85;;;14.40;99.90;;;;;;5110057;28;20194;-72
2021/09/09 06:27:15;;;;;;;0.50;0.50;;;14.30;99.90;;;;;;5109827;28;20203;-72
2021/09/09 06:29:40;;;;;;;5.28;1.10;;;14.40;99.90;;;;;;5128465;28;20187;-72
2021/09/09 06:32:07;;;;;;;1.30;0.93;;;14.60;99.90;;;;;;5128291;28;20166;-71
2021/09/09 06:34:33;;;;;;;1.42;1.38;;;14.90;99.90;;;;;;5127952;28;20278;-72
2021/09/09 06:36:59;;;;;;;0.70;0.70;;;15.20;99.90;;;;;;5112452;28;20339;-72
2021/09/09 06:39:24;;;;;;;0.93;0.93;;;15.80;99.90;;;;;;5130113;28;20192;-73
2021/09/09 06:41:50;;;;;;;1.42;0.93;;;17.20;99.90;;;;;;5103091;28;20182;-73
2021/09/09 06:44:17;;;;;;;2.85;2.58;;;18.30;99.90;;;;;;5124745;28;20170;-73
2021/09/09 06:46:43;;;;;;;1.25;0.88;;;19.20;99.90;;;;;;5131505;28;20209;-73
2021/09/09 06:49:09;;;;;;;2.35;1.65;;;19.50;99.90;;;;;;5131534;28;20197;-73
2021/09/09 06:51:36;;;;;;;2.03;1.75;;;19.30;99.90;;;;;;5113045;28;20163;-73
2021/09/09 06:54:04;;;;;;;0.90;0.73;;;19.40;99.90;;;;;;5112613;28;20222;-73
2021/09/09 06:56:30;;;;;;;1.13;1.00;;;18.50;99.90;;;;;;5131260;28;20190;-73
2021/09/09 06:58:56;;;;;;;4.60;2.20;;;18.50;99.90;;;;;;5125350;28;20167;-73
2021/09/09 07:01:22;;;;;;;0.40;0.40;;;18.60;99.90;;;;;;5111937;28;20195;-73
2021/09/09 07:03:48;;;;;;;4.07;1.88;;;19.90;99.90;;;;;;5092261;28;20223;-73
2021/09/09 07:06:15;;;;;;;4.78;1.25;;;20.10;99.90;;;;;;5115529;28;20190;-73
2021/09/09 07:08:41;;;;;;;5.82;1.60;;;19.30;99.90;;;;;;5130979;28;20214;-72
2021/09/09 07:11:08;;;;;;;2.85;1.65;;;19.90;99.90;;;;;;5111954;28;20239;-71
2021/09/09 07:13:34;;;;;;;1.23;1.13;;;20.90;99.90;;;;;;5129217;28;20150;-72
2021/09/09 07:16:02;;;;;;;1.08;1.08;;;21.90;99.90;;;;;;5130820;28;20155;-72
2021/09/09 07:18:28;;;;;;;4.45;1.90;;;22.50;99.90;;;;;;5112593;28;20176;-72
2021/09/09 07:20:55;;;;;;;10.38;1.27;;;22.80;99.90;;;;;;5112350;28;20261;-72
2021/09/09 07:23:21;;;;;;;2.55;1.20;;;22.50;99.90;;;;;;5130679;28;20180;-72
2021/09/09 07:25:47;;;;;;;5.30;1.23;;;22.10;99.90;;;;;;5112014;28;20170;-72
2021/09/09 07:28:14;;;;;;;1.52;1.38;;;21.20;99.90;;;;;;5130777;28;20153;-71
2021/09/09 07:30:40;;;;;;;3.05;2.40;;;22.20;99.90;;;;;;5112111;28;20225;-72
2021/09/09 07:33:06;;;;;;;7.60;1.55;;;23.20;99.90;;;;;;5111945;28;20228;-74
2021/09/09 07:35:33;;;;;;;1.65;1.23;;;23.30;99.90;;;;;;5092469;28;20170;-73
2021/09/09 07:37:59;;;;;;;2.00;1.85;;;23.70;99.90;;;;;;5109162;28;20171;-73
2021/09/09 07:40:25;;;;;;;12.40;3.03;;;24.30;99.90;;;;;;5109672;28;20155;-73
2021/09/09 07:42:51;;;;;;;15.45;1.27;;;24.60;99.90;;;;;;5091820;28;20198;-73
2021/09/09 07:45:17;;;;;;;1.10;1.10;;;25.40;99.90;;;;;;5110306;28;20179;-73
2021/09/09 07:47:44;;;;;;;5.40;1.10;;;25.90;98.70;;;;;;5091534;28;20167;-73
2021/09/09 07:50:10;;;;;;;0.68;0.68;;;25.70;99.70;;;;;;5109709;28;20183;-73
2021/09/09 07:52:40;;;;;;;4.22;1.15;;;26.20;99.90;;;;;;5109750;28;20189;-73
2021/09/09 07:55:08;;;;;;;1.25;1.10;;;25.60;98.50;;;;;;5109128;28;20220;-73
2021/09/09 07:57:34;;;;;;;1.20;0.82;;;24.30;99.50;;;;;;5109822;28;20166;-72
2021/09/09 08:00:01;;;;;;;1.10;1.02;;;22.80;99.90;;;;;;5091502;28;20171;-72
2021/09/09 08:02:26;;;;;;;0.70;0.63;;;22.80;99.90;;;;;;5109700;28;20197;-72
2021/09/09 08:04:52;;;;;;;13.48;1.42;;;22.40;99.90;;;;;;5109526;28;20163;-73
2021/09/09 08:07:18;;;;;;;1.20;1.15;;;23.50;99.90;;;;;;5109829;28;20167;-73
2021/09/09 08:09:44;;;;;;;1.55;1.33;;;23.00;99.90;;;;;;5090976;28;20202;-72
2021/09/09 08:12:10;;;;;;;1.80;0.73;;;23.30;99.90;;;;;;5109254;28;20215;-73
2021/09/09 08:14:36;;;;;;;0.50;0.50;;;24.60;99.90;;;;;;5109368;28;20222;-72
2021/09/09 08:17:02;;;;;;;0.52;0.40;;;25.90;96.00;;;;;;5091159;28;20190;-72
2021/09/09 08:19:28;;;;;;;0.63;0.52;;;25.90;99.30;;;;;;5109133;28;20151;-75
2021/09/09 08:21:54;;;;;;;1.08;1.00;;;26.20;99.20;;;;;;5109175;28;20210;-76
2021/09/09 08:24:20;;;;;;;1.23;0.88;;;25.80;99.90;;;;;;5109390;28;20269;-78
2021/09/09 08:26:46;;;;;;;0.60;0.60;;;25.40;97.70;;;;;;5090981;28;20219;-76
2021/09/09 08:29:12;;;;;;;2.17;0.70;;;25.60;98.30;;;;;;5090595;28;20198;-77
2021/09/09 08:31:37;;;;;;;0.50;0.50;;;26.70;97.50;;;;;;5106591;28;20198;-75
2021/09/09 08:34:05;;;;;;;1.23;1.13;;;26.60;96.40;;;;;;5096520;28;20201;-77
2021/09/09 08:36:34;;;;;;;2.13;1.02;;;26.40;95.50;;;;;;5088506;28;20170;-75
2021/09/09 08:39:00;;;;;;;1.05;0.93;;;26.00;98.10;;;;;;5116096;28;20216;-77
2021/09/09 08:41:26;;;;;;;0.40;0.40;;;25.80;98.30;;;;;;5116956;28;20234;-76
2021/09/09 08:43:52;;;;;;;1.02;0.85;;;25.70;96.00;;;;;;5097739;28;20201;-76
2021/09/09 08:46:18;;;;;;;0.77;0.77;;;25.40;97.00;;;;;;5109411;28;20194;-75
2021/09/09 08:48:45;;;;;;;12.88;1.17;;;25.70;98.40;;;;;;5108788;28;20706;-77
2021/09/09 08:51:13;;;;;;;4.25;0.73;;;25.60;96.40;;;;;;5109565;28;20240;-75
2021/09/09 08:53:40;;;;;;;0.65;0.43;;;24.60;96.50;;;;;;5104488;28;20240;-74
2021/09/09 08:56:06;;;;;;;1.50;0.30;;;25.00;96.90;;;;;;5082568;28;20209;-75
2021/09/09 08:58:36;;;;;;;2.38;2.17;;;25.50;96.40;;;;;;5117514;28;20252;-75
2021/09/09 09:01:19;;;;;;;1.40;0.98;;;26.20;95.90;;;;;;5088680;28;20225;-75
2021/09/09 09:03:51;;;;;;;0.43;0.43;;;25.20;96.40;;;;;;5104632;28;20189;-75
2021/09/09 09:06:26;;;;;;;0.93;0.73;;;24.70;97.60;;;;;;5086500;28;20198;-74
2021/09/09 09:08:54;;;;;;;0.70;0.70;;;26.10;97.80;;;;;;5110775;28;20204;-75
2021/09/09 09:11:39;;;;;;;0.73;0.57;;;26.00;95.50;;;;;;5110001;28;20834;-75
2021/09/09 09:14:08;;;;;;;20.02;0.60;;;25.50;96.30;;;;;;5108775;28;20159;-74
2021/09/09 09:16:34;;;;;;;0.50;0.50;;;26.10;95.70;;;;;;5111736;28;20196;-75
2021/09/09 09:19:01;;;;;;;13.40;0.73;;;26.50;95.20;;;;;;5092774;28;20253;-75
2021/09/09 09:21:30;;;;;;;0.65;0.65;;;26.70;94.90;;;;;;5127043;28;20278;-75
2021/09/09 09:24:00;;;;;;;0.32;0.32;;;26.70;94.30;;;;;;5126161;28;20169;-75
2021/09/09 09:26:27;;;;;;;0.45;0.43;;;26.20;96.80;;;;;;5086508;28;20214;-77
2021/09/09 09:28:56;;;;;;;0.52;0.52;;;27.20;95.40;;;;;;5088999;28;20322;-77
2021/09/09 09:31:28;;;;;;;0.77;0.70;;;26.40;93.20;;;;;;5114590;28;20169;-76
2021/09/09 09:33:57;;;;;;;3.75;0.50;;;25.60;95.80;;;;;;5106448;28;20197;-74
2021/09/09 09:36:23;;;;;;;0.50;0.47;;;24.90;96.60;;;;;;5087524;28;20198;-75
2021/09/09 09:39:11;;;;;;;0.40;0.40;;;24.90;96.90;;;;;;5089407;28;20265;-76
2021/09/09 09:41:40;;;;;;;1.02;0.85;;;25.70;94.60;;;;;;5089407;28;20190;-75
2021/09/09 09:44:10;;;;;;;0.30;0.30;;;26.30;93.40;;;;;;5089079;28;20167;-74
2021/09/09 09:46:42;;;;;;;0.82;0.77;;;25.40;94.90;;;;;;5099670;28;20235;-74
2021/09/09 09:49:37;;;;;;;0.30;0.30;;;25.30;95.70;;;;;;5124089;28;20190;-74
2021/09/09 09:52:04;;;;;;;1.55;1.17;;;26.30;93.10;;;;;;5075086;28;20251;-74
2021/09/09 09:54:30;;;;;;;4.32;0.60;;;27.00;94.40;;;;;;5073866;28;20223;-74
2021/09/09 09:56:57;;;;;;;0.60;0.60;;;26.80;93.60;;;;;;5064127;28;20195;-74
2021/09/09 09:59:24;;;;;;;0.65;0.55;;;26.30;93.80;;;;;;5068759;28;20163;-75
2021/09/09 10:01:50;;;;;;;0.75;0.70;;;26.10;94.50;;;;;;5064958;28;20222;-75
2021/09/09 10:04:19;;;;;;;0.77;0.75;;;27.00;93.00;;;;;;5081171;28;20277;-75
2021/09/09 10:06:48;;;;;;;0.50;0.50;;;27.50;93.80;;;;;;5074542;28;20174;-76
2021/09/09 10:09:15;;;;;;;0.40;0.40;;;27.10;94.20;;;;;;5084725;28;20214;-75
2021/09/09 10:11:42;;;;;;;0.57;0.57;;;26.30;91.30;;;;;;5075326;28;20195;-75
2021/09/09 10:14:15;;;;;;;1.20;0.45;;;25.80;96.40;;;;;;5072032;28;20163;-75
2021/09/09 10:16:43;;;;;;;2.45;1.00;;;27.30;93.00;;;;;;5093959;28;20273;-75
2021/09/09 10:19:12;;;;;;;1.25;1.08;;;26.50;91.70;;;;;;5069784;28;20264;-74
2021/09/09 10:21:47;;;;;;;0.40;0.40;;;26.00;93.40;;;;;;5073729;28;20217;-75
2021/09/09 10:24:31;;;;;;;1.75;0.40;;;26.60;91.50;;;;;;5065919;28;20219;-76
2021/09/09 10:27:24;;;;;;;0.88;0.82;;;26.60;92.90;;;;;;5083211;28;20254;-73
2021/09/09 10:30:00;;;;;;;0.35;0.30;;;26.30;92.10;;;;;;5087877;28;20549;-73
2021/09/09 10:32:29;;;;;;;0.80;0.68;;;26.60;91.60;;;;;;5088529;28;20217;-73
2021/09/09 10:35:16;;;;;;;0.57;0.57;;;27.50;91.30;;;;;;5087108;28;20356;-74
2021/09/09 10:37:46;;;;;;;0.47;0.47;;;28.20;89.20;;;;;;5073478;28;20206;-74
2021/09/09 10:40:35;;;;;;;0.80;0.40;;;27.60;90.50;;;;;;5094229;28;20285;-74
2021/09/09 10:43:13;;;;;;;0.20;0.20;;;27.60;90.40;;;;;;5085618;28;20267;-74
2021/09/09 10:45:42;;;;;;;0.25;0.25;;;26.70;90.90;;;;;;5077391;28;20239;-74
2021/09/09 10:48:19;;;;;;;1.10;0.80;;;26.10;91.30;;;;;;5089618;28;20167;-73
2021/09/09 10:50:59;;;;;;;0.38;0.38;;;26.10;92.00;;;;;;5084563;28;20218;-73
2021/09/09 10:53:52;;;;;;;0.10;0.10;;;26.20;91.30;;;;;;5052349;28;20219;-73
2021/09/09 10:56:20;;;;;;;0.77;0.77;;;25.60;92.00;;;;;;5052020;28;20175;-73
2021/09/09 10:58:53;;;;;;;0.30;0.30;;;26.00;91.70;;;;;;5085094;28;20221;-73
2021/09/09 11:01:19;;;;;;;0.40;0.40;;;25.50;93.20;;;;;;5088324;28;20220;-72
2021/09/09 11:03:47;;;;;;;0.77;0.77;;;26.80;94.00;;;;;;5069615;28;20199;-73
2021/09/09 11:06:24;;;;;;;0.25;0.25;;;27.70;90.50;;;;;;5089389;28;20210;-73
2021/09/09 11:08:57;;;;;;;0.52;0.43;;;27.90;90.20;;;;;;5072119;28;20202;-73
2021/09/09 11:11:27;;;;;;;1.50;1.23;;;28.00;91.50;;;;;;5072164;28;20605;-74
2021/09/09 11:14:00;;;;;;;6.85;0.63;;;27.80;91.90;;;;;;5090415;28;20184;-74
2021/09/09 11:16:29;;;;;;;1.65;0.63;;;27.20;90.60;;;;;;5071949;28;20166;-74
2021/09/09 11:18:55;;;;;;;1.00;0.98;;;27.90;90.50;;;;;;5072094;28;20171;-74
2021/09/09 11:21:31;;;;;;;0.65;0.65;;;28.70;90.50;;;;;;5089907;28;20156;-74
2021/09/09 11:24:01;;;;;;;0.77;0.68;;;28.40;91.10;;;;;;5090056;28;20258;-73
2021/09/09 11:26:28;;;;;;;0.70;0.50;;;27.60;92.30;;;;;;5074659;28;20180;-73
2021/09/09 11:28:56;;;;;;;0.20;0.20;;;28.20;90.30;;;;;;5051693;28;20222;-74
2021/09/09 11:31:27;;;;;;;1.45;0.52;;;28.70;90.10;;;;;;5058504;28;20195;-73
2021/09/09 11:34:04;;;;;;;1.35;0.93;;;28.00;91.30;;;;;;5067680;28;20206;-73
2021/09/09 11:36:38;;;;;;;0.40;0.40;;;29.20;91.70;;;;;;5067192;28;20720;-73
2021/09/09 11:39:09;;;;;;;2.05;1.20;;;28.40;90.90;;;;;;5085381;28;20218;-73
2021/09/09 11:41:37;;;;;;;1.27;0.75;;;28.20;90.50;;;;;;5083825;28;20203;-73
2021/09/09 11:44:33;;;;;;;0.57;0.57;;;27.40;92.20;;;;;;5070608;28;20199;-73
2021/09/09 11:47:07;;;;;;;1.02;0.77;;;27.40;92.80;;;;;;5069729;28;20192;-74
2021/09/09 11:49:33;;;;;;;0.68;0.68;;;27.90;91.40;;;;;;5051027;28;20236;-74
2021/09/09 11:52:00;;;;;;;0.40;0.40;;;27.80;91.40;;;;;;5069130;28;20165;-74
2021/09/09 11:54:31;;;;;;;0.80;0.80;;;28.20;93.70;;;;;;5087364;28;20258;-73
2021/09/09 11:57:15;;;;;;;1.25;1.10;;;29.80;91.20;;;;;;5070717;28;20213;-74
2021/09/09 11:59:58;;;;;;;1.00;0.60;;;30.50;90.20;;;;;;5088149;28;20162;-74
2021/09/09 12:02:44;;;;;;;0.28;0.28;;;31.40;88.50;;;;;;5090844;28;20166;-74
2021/09/09 12:05:16;;;;;;;0.40;0.40;;;30.60;86.20;;;;;;5109093;28;20166;-74
2021/09/09 12:07:43;;;;;;;0.25;0.25;;;29.30;87.40;;;;;;5109203;28;20159;-74
2021/09/09 12:10:11;;;;;;;0.28;0.28;;;27.30;90.50;;;;;;5090586;28;20191;-74
2021/09/09 12:12:37;;;;;;;0.93;0.47;;;26.40;91.20;;;;;;5090798;28;20258;-74
2021/09/09 12:15:10;;;;;;;0.45;0.45;;;26.50;92.30;;;;;;5089500;28;20250;-73
2021/09/09 12:17:37;;;;;;;0.55;0.32;;;26.80;92.00;;;;;;5081421;28;20186;-73
2021/09/09 12:20:09;;;;;;;0.73;0.50;;;26.20;91.60;;;;;;5088773;28;20172;-74
2021/09/09 12:22:59;;;;;;;0.80;0.50;;;25.60;94.90;;;;;;5070520;28;20782;-73
2021/09/09 12:25:28;;;;;;;0.57;0.57;;;25.00;93.00;;;;;;5088609;28;20167;-73
2021/09/09 12:27:56;;;;;;;0.70;0.70;;;24.60;93.80;;;;;;5088906;28;20167;-73
2021/09/09 12:30:24;;;;;;;0.20;0.20;;;24.00;95.20;;;;;;5088634;28;20184;-72
2021/09/09 12:32:49;;;;;;;0.30;0.30;;;23.80;94.60;;;;;;5069960;28;20195;-73
2021/09/09 12:35:20;;;;;;;0.80;0.80;;;23.80;96.10;;;;;;5083378;28;20182;-74
2021/09/09 12:38:28;;;;;;;0.20;0.10;;;24.00;96.10;;;;;;5100473;28;20199;-73
2021/09/09 12:40:55;;;;;;;0.38;0.38;;;23.70;94.80;;;;;;4967289;28;20195;-73
2021/09/09 12:43:31;;;;;;;2.58;1.88;;;23.40;94.90;;;;;;4970698;28;20182;-73
2021/09/09 12:46:00;;;;;;;0.40;0.38;;;23.30;94.60;;;;;;4986044;28;20234;-73
2021/09/09 12:48:27;;;;;;;2.20;0.50;;;23.20;95.10;;;;;;4985524;28;20241;-74
2021/09/09 12:51:01;;;;;;;4.85;1.10;;;23.20;95.50;;;;;;4982310;28;20233;-73